X  CloseMetar Aviation Weather Data     EFPO Pori

Temperature

3°C Temperature

-9°C Dewpoint

41% Humidity



Wind

 3 KM/H

 2 MPH

 1 M/S

 2 KTS



200°
South South
West
Current Conditions

Clear Clear
Pressure 1028.92 (hPa) - 30.38 (in)
Visibility 6.2 (mi) - 10 (km)
Airport
Airport-code EFPO

Location Pori 56 (km)

Metar:
EFPO 051550Z AUTO 20002KT CAVOK 03/M09 Q1029

Time: 05-04-2020 18:50